Atlas — SV6729 — position and weather

sailwx.info

Track history (hours):
 
Tides and Currents Weather Stations Pressure Air Temp Water Temp Dewpoint Dewpoint Depression Visibility Wind Speed Wind Dir Waves Ship Positions

Atlas

Last reported at 2017-Jul-21 10:55 UTC. Time now 2017-Jul-21 19:00 UTC.
Position N 37°57' E 023°37'.

Length 29 m; draft 5 m.

Type: Tug. MMSI: 239611000.

Date/timePositionNaut miles runAvg speedWind from/ knotsBaromVisibWave heightAir tempDewpointWater temp
2017-Jul-21 10:55N 37°57' E 023°37'0 0.0
2017-Jul-21 10:30N 37°57' E 023°37'0 0.3
2017-Jul-21 10:00N 37°57' E 023°36'1 1.8
2017-Jul-21 09:30N 37°57' E 023°36'1 1.7
2017-Jul-21 09:00N 37°57' E 023°37'0 0.0
2017-Jul-21 08:30N 37°57' E 023°37'0 0.0
2017-Jul-21 08:00N 37°57' E 023°37'0 0.0
2017-Jul-21 07:30N 37°57' E 023°37'0 0.0
2017-Jul-21 07:00N 37°57' E 023°37'0 0.0
2017-Jul-21 06:30N 37°57' E 023°37'1 1.5
2017-Jul-21 06:00N 37°57' E 023°36'1 1.6
2017-Jul-21 05:30N 37°57' E 023°35'1 1.7
2017-Jul-21 05:01N 37°58' E 023°34'2 4.5
2017-Jul-21 04:31N 37°57' E 023°37'0 0.0
2017-Jul-21 04:01N 37°57' E 023°37'0 0.0
2017-Jul-21 03:30N 37°57' E 023°37'0 0.0
2017-Jul-20 19:39N 37°57' E 023°37'0 0.2
2017-Jul-20 19:30N 37°57' E 023°37'0 0.0
2017-Jul-20 19:00N 37°57' E 023°37'0 0.0
2017-Jul-20 18:30N 37°57' E 023°37'0 0.0
2017-Jul-20 18:00N 37°57' E 023°37'0 0.0
2017-Jul-20 17:30N 37°57' E 023°37'0 0.0
2017-Jul-20 17:00N 37°57' E 023°37'0 0.5
2017-Jul-20 16:30N 37°58' E 023°36'1 1.0
2017-Jul-20 16:00N 37°57' E 023°36'0 0.7
2017-Jul-20 15:30N 37°57' E 023°36'1 1.5
2017-Jul-20 15:00N 37°57' E 023°37'0 0.0
2017-Jul-20 14:00N 37°57' E 023°37'0 0.1
2017-Jul-20 13:31N 37°57' E 023°37'0 0.0
2017-Jul-20 13:00N 37°57' E 023°37'0 0.0
2017-Jul-20 12:30N 37°57' E 023°37'0 0.8
2017-Jul-20 12:01N 37°58' E 023°36'0 0.8
2017-Jul-20 11:31N 37°57' E 023°37'0 0.0
2017-Jul-20 11:01N 37°57' E 023°37'0 0.0
2017-Jul-20 10:30N 37°57' E 023°37'0 0.1
2017-Jul-20 10:00N 37°57' E 023°37'0 0.1
2017-Jul-20 09:31N 37°57' E 023°37'0 0.0
2017-Jul-20 09:00N 37°57' E 023°37'0 0.0
2017-Jul-20 08:30N 37°57' E 023°37'0 0.0
2017-Jul-20 08:00N 37°57' E 023°37'0 0.0
2017-Jul-20 07:30N 37°57' E 023°37'0 0.8
2017-Jul-20 07:01N 37°58' E 023°36'2 3.1
2017-Jul-20 06:30N 37°56' E 023°37'1 2.5
2017-Jul-20 06:00N 37°57' E 023°36'0 0.6
2017-Jul-20 05:30N 37°57' E 023°36'1 1.5
2017-Jul-20 05:01N 37°57' E 023°36'0 0.1
2017-Jul-20 04:31N 37°57' E 023°37'0 0.0
2017-Jul-20 04:00N 37°57' E 023°37'0 0.0
2017-Jul-20 03:30N 37°57' E 023°37'0 0.0
2017-Jul-20 03:01N 37°57' E 023°37'0 0.0
2017-Jul-18 23:53N 37°57' E 023°37'0 0.0
2017-Jul-18 23:30N 37°57' E 023°37'0 0.0
2017-Jul-18 23:00N 37°57' E 023°37'0 0.0
2017-Jul-18 22:30N 37°57' E 023°37'0 0.0
2017-Jul-18 22:00N 37°57' E 023°37'0 0.0
2017-Jul-18 21:30N 37°57' E 023°37'0 0.0
2017-Jul-18 21:01N 37°57' E 023°37'0 0.0
2017-Jul-18 20:30N 37°57' E 023°37'0 0.8
2017-Jul-18 20:00N 37°58' E 023°36'0 0.8
2017-Jul-18 19:30N 37°57' E 023°37'0 0.0
2017-Jul-18 19:00N 37°57' E 023°37'0 0.0
2017-Jul-18 18:30N 37°57' E 023°37'1 1.1
2017-Jul-18 18:00N 37°57' E 023°37'1 1.1
2017-Jul-18 17:30N 37°57' E 023°37'0 0.0
2017-Jul-18 17:00N 37°57' E 023°37'3 6.9
2017-Jul-18 16:30N 37°59' E 023°33'3 5.0
2017-Jul-18 16:00N 38°02' E 023°34'0 0.5
2017-Jul-18 15:30N 38°02' E 023°35'1 1.9
2017-Jul-18 15:00N 38°02' E 023°33'1 0.8
2017-Jul-18 13:49N 38°02' E 023°32'0 0.0
2017-Jul-18 13:30N 38°02' E 023°32'0 0.0
2017-Jul-18 11:52N 38°02' E 023°32'0 0.0
2017-Jul-18 11:18N 38°02' E 023°32'0 0.0
2017-Jul-18 10:54N 38°02' E 023°32'0 0.0
2017-Jul-18 10:30N 38°02' E 023°32'0 0.0
2017-Jul-18 09:59N 38°02' E 023°32'0 0.0
2017-Jul-18 09:28N 38°02' E 023°32'0 0.0
2017-Jul-18 08:59N 38°02' E 023°32'2 3.7
2017-Jul-18 08:30N 38°02' E 023°30'0 0.6
2017-Jul-18 08:00N 38°02' E 023°30'0 0.2
2017-Jul-18 07:30N 38°02' E 023°30'2 3.4
2017-Jul-18 07:00N 38°01' E 023°32'3 7.0
2017-Jul-18 06:30N 37°58' E 023°34'0 0.0
2017-Jul-18 06:00N 37°58' E 023°34'0 0.0
2017-Jul-18 05:30N 37°58' E 023°34'1 1.7
2017-Jul-18 05:00N 37°58' E 023°33'2 3.7
2017-Jul-18 04:30N 37°60' E 023°34'2 4.6
2017-Jul-18 04:00N 37°58' E 023°33'3 5.8
2017-Jul-18 03:30N 37°57' E 023°37'0 0.0
2017-Jul-18 03:00N 37°57' E 023°37'0 0.0
2017-Jul-17 17:15N 37°57' E 023°37'0 0.1
2017-Jul-17 17:00N 37°57' E 023°37'2 3.4
2017-Jul-17 16:30N 37°58' E 023°34'0 0.5
2017-Jul-17 16:00N 37°57' E 023°35'1 1.4
2017-Jul-17 15:30N 37°57' E 023°35'1 1.8
2017-Jul-17 15:00N 37°57' E 023°37'0 0.0
2017-Jul-17 14:30N 37°57' E 023°37'0 0.0
2017-Jul-17 14:00N 37°57' E 023°37'0 0.0
2017-Jul-17 13:30N 37°57' E 023°37'0 0.0
2017-Jul-17 13:00N 37°57' E 023°37'0 0.0
2017-Jul-17 12:30N 37°57' E 023°37'0 0.0
2017-Jul-17 12:00N 37°57' E 023°37'0 0.0
2017-Jul-17 11:30N 37°57' E 023°37'0 0.4
2017-Jul-17 11:00N 37°58' E 023°36'1 2.6
2017-Jul-17 10:30N 37°56' E 023°36'1 2.3
2017-Jul-17 10:00N 37°57' E 023°36'0 0.1
2017-Jul-17 09:30N 37°57' E 023°37'0 0.0
2017-Jul-17 09:00N 37°57' E 023°37'0 0.6
2017-Jul-17 08:31N 37°57' E 023°36'1 1.3
2017-Jul-17 08:00N 37°57' E 023°36'1 1.4
2017-Jul-17 07:30N 37°57' E 023°37'0 0.0
2017-Jul-17 07:00N 37°57' E 023°37'0 0.0
2017-Jul-17 06:30N 37°57' E 023°37'0 0.0
2017-Jul-17 06:00N 37°57' E 023°37'0 0.0
2017-Jul-17 05:30N 37°57' E 023°37'0 0.0
2017-Jul-17 05:00N 37°57' E 023°37'0 0.0
2017-Jul-17 04:30N 37°57' E 023°37'0 0.0
2017-Jul-17 04:00N 37°57' E 023°37'0 0.0
2017-Jul-17 03:30N 37°57' E 023°37'0 0.0
2017-Jul-16 08:05N 37°57' E 023°37'0 0.0
2017-Jul-16 08:00N 37°57' E 023°37'0 0.0
2017-Jul-16 07:30N 37°57' E 023°37'0 0.0
2017-Jul-16 07:00N 37°57' E 023°37'0 0.0
2017-Jul-16 06:30N 37°57' E 023°37'1 3.0
2017-Jul-16 06:00N 37°57' E 023°35'1 1.8
2017-Jul-16 05:30N 37°57' E 023°36'0 1.0
2017-Jul-16 05:00N 37°57' E 023°36'1 1.4
2017-Jul-16 04:30N 37°57' E 023°37'0 0.1
2017-Jul-16 04:00N 37°57' E 023°37'0 0.0
2017-Jul-16 03:30N 37°57' E 023°37'0 0.0
2017-Jul-16 03:00N 37°57' E 023°37'0 0.0
2017-Jul-16 02:30N 37°57' E 023°37'0 0.0
2017-Jul-16 02:00N 37°57' E 023°37'0 0.0
2017-Jul-16 01:30N 37°57' E 023°37'0 0.0
2017-Jul-16 01:00N 37°57' E 023°37'0 0.0
2017-Jul-16 00:30N 37°57' E 023°37'0 0.5
2017-Jul-16 00:00N 37°58' E 023°36'1 2.1
2017-Jul-15 23:30N 37°57' E 023°35'1 2.1
2017-Jul-15 23:00N 37°57' E 023°37'0 0.0
2017-Jul-15 22:30N 37°57' E 023°37'0 0.0
2017-Jul-15 22:00N 37°57' E 023°37'0 0.0
2017-Jul-15 21:30N 37°57' E 023°37'0 0.0
2017-Jul-15 21:00N 37°57' E 023°37'0 0.0
2017-Jul-15 20:30N 37°57' E 023°37'0 0.0
2017-Jul-15 20:00N 37°57' E 023°37'0 0.0
2017-Jul-15 19:30N 37°57' E 023°37'0 0.0
2017-Jul-15 19:00N 37°57' E 023°37'0 0.5
2017-Jul-15 18:30N 37°57' E 023°36'1 2.6
2017-Jul-15 18:00N 37°57' E 023°35'0 0.7
2017-Jul-15 17:30N 37°57' E 023°35'0 0.8
2017-Jul-15 17:00N 37°57' E 023°35'0 0.2
2017-Jul-15 16:30N 37°57' E 023°35'1 2.9
2017-Jul-15 16:00N 37°57' E 023°37'0 0.0
2017-Jul-15 15:30N 37°57' E 023°37'0 0.0
2017-Jul-15 15:00N 37°57' E 023°37'0 0.0
2017-Jul-15 14:00N 37°57' E 023°37'0 0.1
2017-Jul-15 13:31N 37°57' E 023°37'0 0.0
2017-Jul-15 13:01N 37°57' E 023°37'1 1.2
2017-Jul-15 12:31N 37°57' E 023°36'1 1.7
2017-Jul-15 12:00N 37°57' E 023°35'0 0.2
2017-Jul-15 11:31N 37°57' E 023°35'1 2.7
2017-Jul-15 11:00N 37°57' E 023°37'0 0.0
2017-Jul-14 20:34N 37°57' E 023°37'0 0.1
2017-Jul-14 20:30N 37°57' E 023°37'1 1.3
2017-Jul-14 20:00N 37°57' E 023°36'1 2.7
2017-Jul-14 19:31N 37°57' E 023°34'5 9.1
2017-Jul-14 19:01N 38°01' E 023°32'1 1.8
2017-Jul-14 18:31N 38°02' E 023°32'1 1.1
2017-Jul-14 18:00N 38°02' E 023°32'0 0.5
2017-Jul-14 17:30N 38°02' E 023°32'0 0.1
2017-Jul-14 17:00N 38°02' E 023°32'0 0.5
2017-Jul-14 16:30N 38°02' E 023°32'0 0.6
2017-Jul-14 16:01N 38°02' E 023°32'0 0.0
2017-Jul-14 15:31N 38°02' E 023°32'0 0.0
2017-Jul-14 15:00N 38°02' E 023°32'0 0.0
2017-Jul-14 14:31N 38°02' E 023°32'0 0.0
2017-Jul-14 14:00N 38°02' E 023°32'0 0.0
2017-Jul-14 13:30N 38°02' E 023°32'0 0.0
2017-Jul-14 13:00N 38°02' E 023°32'1 2.4
2017-Jul-14 12:30N 38°01' E 023°33'4 8.5
2017-Jul-14 12:00N 37°57' E 023°35'1 1.2
2017-Jul-14 11:31N 37°57' E 023°36'1 1.2
2017-Jul-14 11:00N 37°57' E 023°37'0 0.0
2017-Jul-13 21:57N 37°57' E 023°37'0 0.6
2017-Jul-13 21:30N 37°57' E 023°36'0 0.0
2017-Jul-13 21:00N 37°57' E 023°36'0 0.8
2017-Jul-13 20:30N 37°57' E 023°36'0 0.2
2017-Jul-13 20:00N 37°57' E 023°36'0 0.5
2017-Jul-13 19:30N 37°57' E 023°36'0 0.5
2017-Jul-13 19:00N 37°57' E 023°36'1 1.2
2017-Jul-13 18:30N 37°58' E 023°36'0 0.5
2017-Jul-13 18:00N 37°57' E 023°37'0 0.0
2017-Jul-13 17:30N 37°57' E 023°37'0 0.0
2017-Jul-13 17:00N 37°57' E 023°37'3 6.3
2017-Jul-13 16:30N 37°58' E 023°33'4 7.4
2017-Jul-13 16:00N 38°02' E 023°33'0 0.5
2017-Jul-13 15:30N 38°02' E 023°32'0 0.0
2017-Jul-13 15:00N 38°02' E 023°32'1 1.2
2017-Jul-13 14:30N 38°02' E 023°32'1 2.3
2017-Jul-13 14:00N 38°00' E 023°33'3 5.6
2017-Jul-13 13:30N 37°58' E 023°34'0 0.0
2017-Jul-13 13:00N 37°58' E 023°34'0 0.0
2017-Jul-13 12:30N 37°58' E 023°34'2 3.2
2017-Jul-13 12:00N 37°58' E 023°36'1 2.4
2017-Jul-13 11:30N 37°56' E 023°36'1 1.9
2017-Jul-13 11:00N 37°57' E 023°37'0 0.0
2017-Jul-12 20:58N 37°57' E 023°37'0 0.0
2017-Jul-12 20:30N 37°57' E 023°37'0 0.0
2017-Jul-12 20:00N 37°57' E 023°37'0 0.0
2017-Jul-12 19:30N 37°57' E 023°37'0 0.0
2017-Jul-12 19:00N 37°57' E 023°37'0 0.0
2017-Jul-12 18:30N 37°57' E 023°37'1 1.2
2017-Jul-12 18:00N 37°57' E 023°36'1 1.2
2017-Jul-12 17:30N 37°57' E 023°37'0 0.0
2017-Jul-12 17:00N 37°57' E 023°37'0 0.0
2017-Jul-12 16:30N 37°57' E 023°37'0 0.0
2017-Jul-12 16:00N 37°57' E 023°37'0 0.1
2017-Jul-12 15:30N 37°57' E 023°37'0 0.1
2017-Jul-12 15:00N 37°57' E 023°37'1 1.0
2017-Jul-12 14:00N 37°57' E 023°35'1 1.8
2017-Jul-12 13:31N 37°57' E 023°36'0 0.5
2017-Jul-12 13:00N 37°57' E 023°36'0 0.3
2017-Jul-12 12:30N 37°57' E 023°36'1 1.1
2017-Jul-12 12:00N 37°57' E 023°35'1 1.2
2017-Jul-12 11:31N 37°57' E 023°36'1 2.3
2017-Jul-12 11:00N 37°57' E 023°34'2 3.3
2017-Jul-12 10:30N 37°57' E 023°37'0 0.0
2017-Jul-11 20:15N 37°57' E 023°37'0 1.7
2017-Jul-11 20:00N 37°57' E 023°36'0 0.9
2017-Jul-11 19:30N 37°57' E 023°36'0 0.2
2017-Jul-11 19:00N 37°57' E 023°36'3 5.6
2017-Jul-11 18:30N 37°58' E 023°33'4 7.5
2017-Jul-11 18:00N 38°02' E 023°33'1 2.4
2017-Jul-11 17:31N 38°01' E 023°33'3 6.7
2017-Jul-11 17:00N 37°57' E 023°33'0 0.6
2017-Jul-11 16:30N 37°58' E 023°33'1 2.1
2017-Jul-11 16:00N 37°57' E 023°34'0 0.4
2017-Jul-11 15:30N 37°58' E 023°34'0 0.0
2017-Jul-11 15:00N 37°58' E 023°34'0 0.0
2017-Jul-11 14:30N 37°58' E 023°34'0 0.0
2017-Jul-11 14:00N 37°58' E 023°34'1 2.4
2017-Jul-11 13:30N 37°57' E 023°36'0 0.6
2017-Jul-11 13:00N 37°57' E 023°36'1 1.4
2017-Jul-11 12:30N 37°57' E 023°36'1 1.3
2017-Jul-11 12:00N 37°57' E 023°36'0 0.5
2017-Jul-11 11:30N 37°57' E 023°37'0 0.0
2017-Jul-11 11:00N 37°57' E 023°37'  
Track history (hours):
 
Tides and Currents Weather Stations Pressure Air Temp Water Temp Dewpoint Dewpoint Depression Visibility Wind Speed Wind Dir Waves Ship Positions

Atlas

Last reported at 2017-Jul-21 10:55 UTC. Time now 2017-Jul-21 19:00 UTC.
Position N 37°57' E 023°37'.

Length 29 m; draft 5 m.

Type: Tug. MMSI: 239611000.

Date/timePositionNaut miles runAvg speedWind from/ knotsBaromVisibWave heightAir tempDewpointWater temp
2017-Jul-21 10:55N 37°57' E 023°37'0 0.0
2017-Jul-21 10:30N 37°57' E 023°37'0 0.3
2017-Jul-21 10:00N 37°57' E 023°36'1 1.8
2017-Jul-21 09:30N 37°57' E 023°36'1 1.7
2017-Jul-21 09:00N 37°57' E 023°37'0 0.0
2017-Jul-21 08:30N 37°57' E 023°37'0 0.0
2017-Jul-21 08:00N 37°57' E 023°37'0 0.0
2017-Jul-21 07:30N 37°57' E 023°37'0 0.0
2017-Jul-21 07:00N 37°57' E 023°37'0 0.0
2017-Jul-21 06:30N 37°57' E 023°37'1 1.5
2017-Jul-21 06:00N 37°57' E 023°36'1 1.6
2017-Jul-21 05:30N 37°57' E 023°35'1 1.7
2017-Jul-21 05:01N 37°58' E 023°34'2 4.5
2017-Jul-21 04:31N 37°57' E 023°37'0 0.0
2017-Jul-21 04:01N 37°57' E 023°37'0 0.0
2017-Jul-21 03:30N 37°57' E 023°37'0 0.0
2017-Jul-20 19:39N 37°57' E 023°37'0 0.2
2017-Jul-20 19:30N 37°57' E 023°37'0 0.0
2017-Jul-20 19:00N 37°57' E 023°37'0 0.0
2017-Jul-20 18:30N 37°57' E 023°37'0 0.0
2017-Jul-20 18:00N 37°57' E 023°37'0 0.0
2017-Jul-20 17:30N 37°57' E 023°37'0 0.0
2017-Jul-20 17:00N 37°57' E 023°37'0 0.5
2017-Jul-20 16:30N 37°58' E 023°36'1 1.0
2017-Jul-20 16:00N 37°57' E 023°36'0 0.7
2017-Jul-20 15:30N 37°57' E 023°36'1 1.5
2017-Jul-20 15:00N 37°57' E 023°37'0 0.0
2017-Jul-20 14:00N 37°57' E 023°37'0 0.1
2017-Jul-20 13:31N 37°57' E 023°37'0 0.0
2017-Jul-20 13:00N 37°57' E 023°37'0 0.0
2017-Jul-20 12:30N 37°57' E 023°37'0 0.8
2017-Jul-20 12:01N 37°58' E 023°36'0 0.8
2017-Jul-20 11:31N 37°57' E 023°37'0 0.0
2017-Jul-20 11:01N 37°57' E 023°37'0 0.0
2017-Jul-20 10:30N 37°57' E 023°37'0 0.1
2017-Jul-20 10:00N 37°57' E 023°37'0 0.1
2017-Jul-20 09:31N 37°57' E 023°37'0 0.0
2017-Jul-20 09:00N 37°57' E 023°37'0 0.0
2017-Jul-20 08:30N 37°57' E 023°37'0 0.0
2017-Jul-20 08:00N 37°57' E 023°37'0 0.0
2017-Jul-20 07:30N 37°57' E 023°37'0 0.8
2017-Jul-20 07:01N 37°58' E 023°36'2 3.1
2017-Jul-20 06:30N 37°56' E 023°37'1 2.5
2017-Jul-20 06:00N 37°57' E 023°36'0 0.6
2017-Jul-20 05:30N 37°57' E 023°36'1 1.5
2017-Jul-20 05:01N 37°57' E 023°36'0 0.1
2017-Jul-20 04:31N 37°57' E 023°37'0 0.0
2017-Jul-20 04:00N 37°57' E 023°37'0 0.0
2017-Jul-20 03:30N 37°57' E 023°37'0 0.0
2017-Jul-20 03:01N 37°57' E 023°37'0 0.0
2017-Jul-18 23:53N 37°57' E 023°37'0 0.0
2017-Jul-18 23:30N 37°57' E 023°37'0 0.0
2017-Jul-18 23:00N 37°57' E 023°37'0 0.0
2017-Jul-18 22:30N 37°57' E 023°37'0 0.0
2017-Jul-18 22:00N 37°57' E 023°37'0 0.0
2017-Jul-18 21:30N 37°57' E 023°37'0 0.0
2017-Jul-18 21:01N 37°57' E 023°37'0 0.0
2017-Jul-18 20:30N 37°57' E 023°37'0 0.8
2017-Jul-18 20:00N 37°58' E 023°36'0 0.8
2017-Jul-18 19:30N 37°57' E 023°37'0 0.0
2017-Jul-18 19:00N 37°57' E 023°37'0 0.0
2017-Jul-18 18:30N 37°57' E 023°37'1 1.1
2017-Jul-18 18:00N 37°57' E 023°37'1 1.1
2017-Jul-18 17:30N 37°57' E 023°37'0 0.0
2017-Jul-18 17:00N 37°57' E 023°37'3 6.9
2017-Jul-18 16:30N 37°59' E 023°33'3 5.0
2017-Jul-18 16:00N 38°02' E 023°34'0 0.5
2017-Jul-18 15:30N 38°02' E 023°35'1 1.9
2017-Jul-18 15:00N 38°02' E 023°33'1 0.8
2017-Jul-18 13:49N 38°02' E 023°32'0 0.0
2017-Jul-18 13:30N 38°02' E 023°32'0 0.0
2017-Jul-18 11:52N 38°02' E 023°32'0 0.0
2017-Jul-18 11:18N 38°02' E 023°32'0 0.0
2017-Jul-18 10:54N 38°02' E 023°32'0 0.0
2017-Jul-18 10:30N 38°02' E 023°32'0 0.0
2017-Jul-18 09:59N 38°02' E 023°32'0 0.0
2017-Jul-18 09:28N 38°02' E 023°32'0 0.0
2017-Jul-18 08:59N 38°02' E 023°32'2 3.7
2017-Jul-18 08:30N 38°02' E 023°30'0 0.6
2017-Jul-18 08:00N 38°02' E 023°30'0 0.2
2017-Jul-18 07:30N 38°02' E 023°30'2 3.4
2017-Jul-18 07:00N 38°01' E 023°32'3 7.0
2017-Jul-18 06:30N 37°58' E 023°34'0 0.0
2017-Jul-18 06:00N 37°58' E 023°34'0 0.0
2017-Jul-18 05:30N 37°58' E 023°34'1 1.7
2017-Jul-18 05:00N 37°58' E 023°33'2 3.7
2017-Jul-18 04:30N 37°60' E 023°34'2 4.6
2017-Jul-18 04:00N 37°58' E 023°33'3 5.8
2017-Jul-18 03:30N 37°57' E 023°37'0 0.0
2017-Jul-18 03:00N 37°57' E 023°37'0 0.0
2017-Jul-17 17:15N 37°57' E 023°37'0 0.1
2017-Jul-17 17:00N 37°57' E 023°37'2 3.4
2017-Jul-17 16:30N 37°58' E 023°34'0 0.5
2017-Jul-17 16:00N 37°57' E 023°35'1 1.4
2017-Jul-17 15:30N 37°57' E 023°35'1 1.8
2017-Jul-17 15:00N 37°57' E 023°37'0 0.0
2017-Jul-17 14:30N 37°57' E 023°37'0 0.0
2017-Jul-17 14:00N 37°57' E 023°37'0 0.0
2017-Jul-17 13:30N 37°57' E 023°37'0 0.0
2017-Jul-17 13:00N 37°57' E 023°37'0 0.0
2017-Jul-17 12:30N 37°57' E 023°37'0 0.0
2017-Jul-17 12:00N 37°57' E 023°37'0 0.0
2017-Jul-17 11:30N 37°57' E 023°37'0 0.4
2017-Jul-17 11:00N 37°58' E 023°36'1 2.6
2017-Jul-17 10:30N 37°56' E 023°36'1 2.3
2017-Jul-17 10:00N 37°57' E 023°36'0 0.1
2017-Jul-17 09:30N 37°57' E 023°37'0 0.0
2017-Jul-17 09:00N 37°57' E 023°37'0 0.6
2017-Jul-17 08:31N 37°57' E 023°36'1 1.3
2017-Jul-17 08:00N 37°57' E 023°36'1 1.4
2017-Jul-17 07:30N 37°57' E 023°37'0 0.0
2017-Jul-17 07:00N 37°57' E 023°37'0 0.0
2017-Jul-17 06:30N 37°57' E 023°37'0 0.0
2017-Jul-17 06:00N 37°57' E 023°37'0 0.0
2017-Jul-17 05:30N 37°57' E 023°37'0 0.0
2017-Jul-17 05:00N 37°57' E 023°37'0 0.0
2017-Jul-17 04:30N 37°57' E 023°37'0 0.0
2017-Jul-17 04:00N 37°57' E 023°37'0 0.0
2017-Jul-17 03:30N 37°57' E 023°37'0 0.0
2017-Jul-16 08:05N 37°57' E 023°37'0 0.0
2017-Jul-16 08:00N 37°57' E 023°37'0 0.0
2017-Jul-16 07:30N 37°57' E 023°37'0 0.0
2017-Jul-16 07:00N 37°57' E 023°37'0 0.0
2017-Jul-16 06:30N 37°57' E 023°37'1 3.0
2017-Jul-16 06:00N 37°57' E 023°35'1 1.8
2017-Jul-16 05:30N 37°57' E 023°36'0 1.0
2017-Jul-16 05:00N 37°57' E 023°36'1 1.4
2017-Jul-16 04:30N 37°57' E 023°37'0 0.1
2017-Jul-16 04:00N 37°57' E 023°37'0 0.0
2017-Jul-16 03:30N 37°57' E 023°37'0 0.0
2017-Jul-16 03:00N 37°57' E 023°37'0 0.0
2017-Jul-16 02:30N 37°57' E 023°37'0 0.0
2017-Jul-16 02:00N 37°57' E 023°37'0 0.0
2017-Jul-16 01:30N 37°57' E 023°37'0 0.0
2017-Jul-16 01:00N 37°57' E 023°37'0 0.0
2017-Jul-16 00:30N 37°57' E 023°37'0 0.5
2017-Jul-16 00:00N 37°58' E 023°36'1 2.1
2017-Jul-15 23:30N 37°57' E 023°35'1 2.1
2017-Jul-15 23:00N 37°57' E 023°37'0 0.0
2017-Jul-15 22:30N 37°57' E 023°37'0 0.0
2017-Jul-15 22:00N 37°57' E 023°37'0 0.0
2017-Jul-15 21:30N 37°57' E 023°37'0 0.0
2017-Jul-15 21:00N 37°57' E 023°37'0 0.0
2017-Jul-15 20:30N 37°57' E 023°37'0 0.0
2017-Jul-15 20:00N 37°57' E 023°37'0 0.0
2017-Jul-15 19:30N 37°57' E 023°37'0 0.0
2017-Jul-15 19:00N 37°57' E 023°37'0 0.5
2017-Jul-15 18:30N 37°57' E 023°36'1 2.6
2017-Jul-15 18:00N 37°57' E 023°35'0 0.7
2017-Jul-15 17:30N 37°57' E 023°35'0 0.8
2017-Jul-15 17:00N 37°57' E 023°35'0 0.2
2017-Jul-15 16:30N 37°57' E 023°35'1 2.9
2017-Jul-15 16:00N 37°57' E 023°37'0 0.0
2017-Jul-15 15:30N 37°57' E 023°37'0 0.0
2017-Jul-15 15:00N 37°57' E 023°37'0 0.0
2017-Jul-15 14:00N 37°57' E 023°37'0 0.1
2017-Jul-15 13:31N 37°57' E 023°37'0 0.0
2017-Jul-15 13:01N 37°57' E 023°37'1 1.2
2017-Jul-15 12:31N 37°57' E 023°36'1 1.7
2017-Jul-15 12:00N 37°57' E 023°35'0 0.2
2017-Jul-15 11:31N 37°57' E 023°35'1 2.7
2017-Jul-15 11:00N 37°57' E 023°37'0 0.0
2017-Jul-14 20:34N 37°57' E 023°37'0 0.1
2017-Jul-14 20:30N 37°57' E 023°37'1 1.3
2017-Jul-14 20:00N 37°57' E 023°36'1 2.7
2017-Jul-14 19:31N 37°57' E 023°34'5 9.1
2017-Jul-14 19:01N 38°01' E 023°32'1 1.8
2017-Jul-14 18:31N 38°02' E 023°32'1 1.1
2017-Jul-14 18:00N 38°02' E 023°32'0 0.5
2017-Jul-14 17:30N 38°02' E 023°32'0 0.1
2017-Jul-14 17:00N 38°02' E 023°32'0 0.5
2017-Jul-14 16:30N 38°02' E 023°32'0 0.6
2017-Jul-14 16:01N 38°02' E 023°32'0 0.0
2017-Jul-14 15:31N 38°02' E 023°32'0 0.0
2017-Jul-14 15:00N 38°02' E 023°32'0 0.0
2017-Jul-14 14:31N 38°02' E 023°32'0 0.0
2017-Jul-14 14:00N 38°02' E 023°32'0 0.0
2017-Jul-14 13:30N 38°02' E 023°32'0 0.0
2017-Jul-14 13:00N 38°02' E 023°32'1 2.4
2017-Jul-14 12:30N 38°01' E 023°33'4 8.5
2017-Jul-14 12:00N 37°57' E 023°35'1 1.2
2017-Jul-14 11:31N 37°57' E 023°36'1 1.2
2017-Jul-14 11:00N 37°57' E 023°37'0 0.0
2017-Jul-13 21:57N 37°57' E 023°37'0 0.6
2017-Jul-13 21:30N 37°57' E 023°36'0 0.0
2017-Jul-13 21:00N 37°57' E 023°36'0 0.8
2017-Jul-13 20:30N 37°57' E 023°36'0 0.2
2017-Jul-13 20:00N 37°57' E 023°36'0 0.5
2017-Jul-13 19:30N 37°57' E 023°36'0 0.5
2017-Jul-13 19:00N 37°57' E 023°36'1 1.2
2017-Jul-13 18:30N 37°58' E 023°36'0 0.5
2017-Jul-13 18:00N 37°57' E 023°37'0 0.0
2017-Jul-13 17:30N 37°57' E 023°37'0 0.0
2017-Jul-13 17:00N 37°57' E 023°37'3 6.3
2017-Jul-13 16:30N 37°58' E 023°33'4 7.4
2017-Jul-13 16:00N 38°02' E 023°33'0 0.5
2017-Jul-13 15:30N 38°02' E 023°32'0 0.0
2017-Jul-13 15:00N 38°02' E 023°32'1 1.2
2017-Jul-13 14:30N 38°02' E 023°32'1 2.3
2017-Jul-13 14:00N 38°00' E 023°33'3 5.6
2017-Jul-13 13:30N 37°58' E 023°34'0 0.0
2017-Jul-13 13:00N 37°58' E 023°34'0 0.0
2017-Jul-13 12:30N 37°58' E 023°34'2 3.2
2017-Jul-13 12:00N 37°58' E 023°36'1 2.4
2017-Jul-13 11:30N 37°56' E 023°36'1 1.9
2017-Jul-13 11:00N 37°57' E 023°37'0 0.0
2017-Jul-12 20:58N 37°57' E 023°37'0 0.0
2017-Jul-12 20:30N 37°57' E 023°37'0 0.0
2017-Jul-12 20:00N 37°57' E 023°37'0 0.0
2017-Jul-12 19:30N 37°57' E 023°37'0 0.0
2017-Jul-12 19:00N 37°57' E 023°37'0 0.0
2017-Jul-12 18:30N 37°57' E 023°37'1 1.2
2017-Jul-12 18:00N 37°57' E 023°36'1 1.2
2017-Jul-12 17:30N 37°57' E 023°37'0 0.0
2017-Jul-12 17:00N 37°57' E 023°37'0 0.0
2017-Jul-12 16:30N 37°57' E 023°37'0 0.0
2017-Jul-12 16:00N 37°57' E 023°37'0 0.1
2017-Jul-12 15:30N 37°57' E 023°37'0 0.1
2017-Jul-12 15:00N 37°57' E 023°37'1 1.0
2017-Jul-12 14:00N 37°57' E 023°35'1 1.8
2017-Jul-12 13:31N 37°57' E 023°36'0 0.5
2017-Jul-12 13:00N 37°57' E 023°36'0 0.3
2017-Jul-12 12:30N 37°57' E 023°36'1 1.1
2017-Jul-12 12:00N 37°57' E 023°35'1 1.2
2017-Jul-12 11:31N 37°57' E 023°36'1 2.3
2017-Jul-12 11:00N 37°57' E 023°34'2 3.3
2017-Jul-12 10:30N 37°57' E 023°37'0 0.0
2017-Jul-11 20:15N 37°57' E 023°37'0 1.7
2017-Jul-11 20:00N 37°57' E 023°36'0 0.9
2017-Jul-11 19:30N 37°57' E 023°36'0 0.2
2017-Jul-11 19:00N 37°57' E 023°36'3 5.6
2017-Jul-11 18:30N 37°58' E 023°33'4 7.5
2017-Jul-11 18:00N 38°02' E 023°33'1 2.4
2017-Jul-11 17:31N 38°01' E 023°33'3 6.7
2017-Jul-11 17:00N 37°57' E 023°33'0 0.6
2017-Jul-11 16:30N 37°58' E 023°33'1 2.1
2017-Jul-11 16:00N 37°57' E 023°34'0 0.4
2017-Jul-11 15:30N 37°58' E 023°34'0 0.0
2017-Jul-11 15:00N 37°58' E 023°34'0 0.0
2017-Jul-11 14:30N 37°58' E 023°34'0 0.0
2017-Jul-11 14:00N 37°58' E 023°34'1 2.4
2017-Jul-11 13:30N 37°57' E 023°36'0 0.6
2017-Jul-11 13:00N 37°57' E 023°36'1 1.4
2017-Jul-11 12:30N 37°57' E 023°36'1 1.3
2017-Jul-11 12:00N 37°57' E 023°36'0 0.5
2017-Jul-11 11:30N 37°57' E 023°37'0 0.0
2017-Jul-11 11:00N 37°57' E 023°37'  

Dump ship's entire track history